createdAt,value
2018-04-07T00:01:10.882Z,51.65
2018-04-07T00:03:38.339Z,52.33
2018-04-07T00:06:05.800Z,52.07
2018-04-07T00:08:33.306Z,51.85
2018-04-07T00:11:00.767Z,51.35
2018-04-07T00:13:28.246Z,51.91
2018-04-07T00:15:55.705Z,50.99
2018-04-07T00:18:23.162Z,51.71
2018-04-07T00:20:50.646Z,51.47
2018-04-07T00:23:18.099Z,51.42
2018-04-07T00:25:45.578Z,51.70
2018-04-07T00:28:13.052Z,52.15
2018-04-07T00:30:40.508Z,51.63
2018-04-07T00:33:07.984Z,52.12
2018-04-07T00:35:35.546Z,52.72
2018-04-07T00:38:03.014Z,53.04
2018-04-07T00:40:30.518Z,53.00
2018-04-07T00:42:57.991Z,53.20
2018-04-07T00:45:25.443Z,52.24
2018-04-07T00:47:52.957Z,52.22
2018-04-07T00:50:20.458Z,52.42
2018-04-07T00:52:55.825Z,52.47
2018-04-07T00:55:23.271Z,52.90
2018-04-07T00:57:50.732Z,52.60
2018-04-07T01:00:18.382Z,52.18
2018-04-07T01:02:45.844Z,52.05
2018-04-07T01:05:13.343Z,52.26
2018-04-07T01:07:40.855Z,52.98
2018-04-07T01:10:08.330Z,53.60
2018-04-07T01:12:35.803Z,53.53
2018-04-07T01:15:03.331Z,54.03
2018-04-07T01:17:30.791Z,53.49
2018-04-07T01:19:58.289Z,53.76
2018-04-07T01:22:25.755Z,53.49
2018-04-07T01:24:53.208Z,53.45
2018-04-07T01:27:20.697Z,52.92
2018-04-07T01:29:48.157Z,53.60
2018-04-07T01:32:15.639Z,53.73
2018-04-07T01:34:43.124Z,53.17
2018-04-07T01:37:10.584Z,53.01
2018-04-07T01:39:38.045Z,54.43
2018-04-07T01:42:05.657Z,54.83
2018-04-07T01:44:33.239Z,54.86
2018-04-07T01:47:00.804Z,54.37
2018-04-07T01:49:28.266Z,54.38
2018-04-07T01:51:55.732Z,55.07
2018-04-07T01:54:23.205Z,55.17
2018-04-07T01:56:50.675Z,54.98
2018-04-07T01:59:18.144Z,55.30
2018-04-07T02:01:45.603Z,54.78
2018-04-07T02:04:13.060Z,55.61
2018-04-07T02:06:40.721Z,55.95
2018-04-07T02:09:08.203Z,56.83
2018-04-07T02:11:35.753Z,57.14
2018-04-07T02:14:03.232Z,57.32
2018-04-07T02:16:30.697Z,57.47
2018-04-07T02:18:58.152Z,57.41
2018-04-07T02:21:25.619Z,57.55
2018-04-07T02:23:53.144Z,57.70
2018-04-07T02:26:20.624Z,58.47
2018-04-07T02:28:48.145Z,59.29
2018-04-07T02:31:15.604Z,59.84
2018-04-07T02:33:43.077Z,60.20
2018-04-07T02:36:10.567Z,60.49
2018-04-07T02:38:38.028Z,60.80
2018-04-07T02:41:05.500Z,60.87
2018-04-07T02:43:32.967Z,61.02
2018-04-07T02:46:00.417Z,61.46
2018-04-07T02:48:27.901Z,61.69
2018-04-07T02:50:55.365Z,62.05
2018-04-07T02:53:22.821Z,62.43
2018-04-07T02:55:50.284Z,62.57
2018-04-07T02:58:17.736Z,63.16
2018-04-07T03:00:45.195Z,63.97
2018-04-07T03:03:12.656Z,63.95
2018-04-07T03:05:40.111Z,63.83
2018-04-07T03:08:07.593Z,64.15
2018-04-07T03:10:35.190Z,64.18
2018-04-07T03:13:02.645Z,64.30
2018-04-07T03:15:30.123Z,64.30
2018-04-07T03:17:57.587Z,64.43
2018-04-07T03:20:25.064Z,64.73
2018-04-07T03:22:52.566Z,64.73
2018-04-07T03:25:20.035Z,64.52
2018-04-07T03:27:47.491Z,64.35
2018-04-07T03:30:14.968Z,64.57
2018-04-07T03:32:42.477Z,65.14
2018-04-07T03:35:09.947Z,65.72
2018-04-07T03:37:37.412Z,65.96
2018-04-07T03:40:04.873Z,66.22
2018-04-07T03:42:32.352Z,66.25
2018-04-07T03:44:59.811Z,66.33
2018-04-07T03:47:27.267Z,66.17
2018-04-07T03:49:54.736Z,66.09
2018-04-07T03:52:22.199Z,65.79
2018-04-07T03:54:49.677Z,66.16
2018-04-07T03:57:17.152Z,67.04
2018-04-07T03:59:44.681Z,67.99
2018-04-07T04:02:12.149Z,68.32
2018-04-07T04:04:39.837Z,68.26
2018-04-07T04:07:07.383Z,68.35
2018-04-07T04:09:34.835Z,68.50
2018-04-07T04:12:02.333Z,68.61
2018-04-07T04:14:29.789Z,68.74
2018-04-07T04:16:57.260Z,68.85
2018-04-07T04:19:24.732Z,69.00
2018-04-07T04:21:53.651Z,68.74
2018-04-07T04:24:21.164Z,68.47
2018-04-07T04:26:48.623Z,68.07
2018-04-07T04:29:16.084Z,67.54
2018-04-07T04:31:43.556Z,67.15
2018-04-07T04:34:11.016Z,67.25
2018-04-07T04:36:38.481Z,67.28
2018-04-07T04:39:05.988Z,67.08
2018-04-07T04:41:34.142Z,66.59
2018-04-07T04:44:01.596Z,66.10
2018-04-07T04:46:29.059Z,65.70
2018-04-07T04:48:56.542Z,65.75
2018-04-07T04:51:24.018Z,65.83
2018-04-07T04:53:51.476Z,65.56
2018-04-07T04:56:19.078Z,65.56
2018-04-07T04:58:46.548Z,65.33
2018-04-07T05:01:14.011Z,64.40
2018-04-07T05:03:41.504Z,64.29
2018-04-07T05:06:08.984Z,64.03
2018-04-07T05:08:36.455Z,64.15
2018-04-07T05:11:03.941Z,64.44
2018-04-07T05:13:31.391Z,64.33
2018-04-07T05:15:58.893Z,63.84
2018-04-07T05:18:26.361Z,63.25
2018-04-07T05:20:53.817Z,63.23
2018-04-07T05:23:21.292Z,62.88
2018-04-07T05:25:49.998Z,62.69
2018-04-07T05:28:17.463Z,63.29
2018-04-07T05:30:45.018Z,63.20
2018-04-07T05:33:12.489Z,63.67
2018-04-07T05:35:39.962Z,64.21
2018-04-07T05:38:07.464Z,64.25
2018-04-07T05:40:34.928Z,64.31
2018-04-07T05:43:02.411Z,64.55
2018-04-07T05:45:29.927Z,64.89
2018-04-07T05:47:58.020Z,65.17
2018-04-07T05:50:25.491Z,65.57
2018-04-07T05:52:52.972Z,65.44
2018-04-07T05:55:20.502Z,65.59
2018-04-07T05:57:47.981Z,64.92
2018-04-07T06:00:15.464Z,64.68
2018-04-07T06:02:42.942Z,64.49
2018-04-07T06:05:10.467Z,63.63
2018-04-07T06:07:37.984Z,63.25
2018-04-07T06:10:06.592Z,62.64
2018-04-07T06:12:34.069Z,62.22
2018-04-07T06:15:01.545Z,61.68
2018-04-07T06:17:29.024Z,60.90
2018-04-07T06:19:56.485Z,60.21
2018-04-07T06:22:23.949Z,59.53
2018-04-07T06:24:51.432Z,59.21
2018-04-07T06:27:18.908Z,58.68
2018-04-07T06:29:46.380Z,58.77
2018-04-07T06:32:13.839Z,58.41
2018-04-07T06:34:41.364Z,58.01
2018-04-07T06:37:08.842Z,58.00
2018-04-07T06:39:36.319Z,57.61
2018-04-07T06:42:03.818Z,57.98
2018-04-07T06:44:31.360Z,57.91
2018-04-07T06:46:58.848Z,57.79
2018-04-07T06:49:26.324Z,57.82
2018-04-07T06:51:53.795Z,58.07
2018-04-07T06:54:21.300Z,57.84
2018-04-07T06:56:48.851Z,57.98
2018-04-07T06:59:16.320Z,57.51
2018-04-07T07:01:43.814Z,57.30
2018-04-07T07:04:11.292Z,57.04
2018-04-07T07:06:38.770Z,56.50
2018-04-07T07:09:06.330Z,56.33
2018-04-07T07:11:33.838Z,55.80
2018-04-07T07:14:01.309Z,55.53
2018-04-07T07:16:28.802Z,55.24
2018-04-07T07:18:56.332Z,54.99
2018-04-07T07:21:23.837Z,54.21
2018-04-07T07:23:51.320Z,53.91
2018-04-07T07:26:18.821Z,53.15
2018-04-07T07:28:46.729Z,52.99
2018-04-07T07:31:14.267Z,52.73
2018-04-07T07:33:41.785Z,52.59
2018-04-07T07:36:09.262Z,52.64
2018-04-07T07:38:36.790Z,52.29
2018-04-07T07:41:04.265Z,52.17
2018-04-07T07:43:31.776Z,51.39
2018-04-07T07:45:59.304Z,50.63
2018-04-07T07:48:26.769Z,49.67
2018-04-07T07:50:54.376Z,48.70
2018-04-07T07:53:21.920Z,48.28
2018-04-07T07:55:49.435Z,47.89
2018-04-07T07:58:16.936Z,47.60
2018-04-07T08:00:44.429Z,47.39
2018-04-07T08:03:12.064Z,47.27
2018-04-07T08:05:39.615Z,46.31
2018-04-07T08:08:07.131Z,45.33
2018-04-07T08:10:34.726Z,43.72
2018-04-07T08:13:02.258Z,43.02
2018-04-07T08:15:29.837Z,42.52
2018-04-07T08:17:57.332Z,41.62
2018-04-07T08:20:24.886Z,40.81
2018-04-07T08:22:52.375Z,39.80
2018-04-07T08:25:19.870Z,40.65
2018-04-07T08:27:47.366Z,38.86
2018-04-07T08:30:14.912Z,39.42
2018-04-07T08:32:42.404Z,39.17
2018-04-07T08:35:09.908Z,38.93
2018-04-07T08:37:37.510Z,38.58
2018-04-07T08:40:05.010Z,38.77
2018-04-07T08:42:32.502Z,37.81
2018-04-07T08:45:00.003Z,37.79
2018-04-07T08:47:27.478Z,37.04
2018-04-07T08:49:54.958Z,37.38
2018-04-07T08:52:22.440Z,37.07
2018-04-07T08:54:49.915Z,35.90
2018-04-07T08:57:17.400Z,36.30
2018-04-07T08:59:44.889Z,36.13
2018-04-07T09:02:12.403Z,35.92
2018-04-07T09:04:39.902Z,35.99
2018-04-07T09:07:07.371Z,36.16
2018-04-07T09:09:34.835Z,36.20
2018-04-07T09:12:02.325Z,35.95
2018-04-07T09:14:29.811Z,36.12
2018-04-07T09:16:57.316Z,35.98
2018-04-07T09:19:24.892Z,35.35
2018-04-07T09:21:53.143Z,35.60
2018-04-07T09:24:20.630Z,35.94
2018-04-07T09:26:48.127Z,36.07
2018-04-07T09:29:15.590Z,36.46
2018-04-07T09:31:43.151Z,36.27
2018-04-07T09:34:10.729Z,36.19
2018-04-07T09:36:38.192Z,35.91
2018-04-07T09:39:06.448Z,35.97
2018-04-07T09:41:33.956Z,35.29
2018-04-07T09:44:01.464Z,36.09
2018-04-07T09:46:28.940Z,36.50
2018-04-07T09:48:56.424Z,36.07
2018-04-07T09:51:23.935Z,35.92
2018-04-07T09:53:51.392Z,35.49
2018-04-07T09:56:18.969Z,35.28
2018-04-07T09:58:46.822Z,35.22
2018-04-07T10:01:14.464Z,35.34
2018-04-07T10:03:41.964Z,35.36
2018-04-07T10:06:09.676Z,35.32
2018-04-07T10:08:37.222Z,35.11
2018-04-07T10:11:04.820Z,35.59
2018-04-07T10:13:32.448Z,35.84
2018-04-07T10:16:00.932Z,35.97
2018-04-07T10:18:28.447Z,35.80
2018-04-07T10:20:55.907Z,35.78
2018-04-07T10:23:23.378Z,35.63
2018-04-07T10:25:50.844Z,35.99
2018-04-07T10:28:18.435Z,36.44
2018-04-07T10:30:45.903Z,36.14
2018-04-07T10:33:13.424Z,35.55
2018-04-07T10:35:40.989Z,35.59
2018-04-07T10:38:08.517Z,35.55
2018-04-07T10:40:36.144Z,35.63
2018-04-07T10:43:03.623Z,35.86
2018-04-07T10:45:31.080Z,35.56
2018-04-07T10:47:58.564Z,35.98
2018-04-07T10:50:26.036Z,35.82
2018-04-07T10:52:53.500Z,36.03
2018-04-07T10:55:20.988Z,36.15
2018-04-07T10:57:48.453Z,36.29
2018-04-07T11:00:15.960Z,36.28
2018-04-07T11:02:43.427Z,36.25
2018-04-07T11:05:10.923Z,36.31
2018-04-07T11:07:38.440Z,36.27
2018-04-07T11:10:05.919Z,36.00
2018-04-07T11:12:33.382Z,35.53
2018-04-07T11:15:00.881Z,35.17
2018-04-07T11:17:28.338Z,35.14
2018-04-07T11:19:55.802Z,34.72
2018-04-07T11:22:23.545Z,34.62
2018-04-07T11:24:50.987Z,34.37
2018-04-07T11:27:18.450Z,34.43
2018-04-07T11:29:45.936Z,34.27
2018-04-07T11:32:13.421Z,34.16
2018-04-07T11:34:40.924Z,34.35
2018-04-07T11:37:08.410Z,34.55
2018-04-07T11:39:35.882Z,35.00
2018-04-07T11:42:03.364Z,34.44
2018-04-07T11:44:30.838Z,34.23
2018-04-07T11:46:58.280Z,34.31
2018-04-07T11:49:25.755Z,34.14
2018-04-07T11:51:53.250Z,33.66
2018-04-07T11:54:20.752Z,33.33
2018-04-07T11:56:48.230Z,32.96
2018-04-07T11:59:15.681Z,32.78
2018-04-07T12:01:43.140Z,32.93
2018-04-07T12:04:10.607Z,32.62
2018-04-07T12:06:38.063Z,32.77
2018-04-07T12:09:06.492Z,33.13
2018-04-07T12:11:33.985Z,33.04
2018-04-07T12:14:01.435Z,32.94
2018-04-07T12:16:28.936Z,32.32
2018-04-07T12:18:56.462Z,32.36
2018-04-07T12:21:23.891Z,32.62
2018-04-07T12:23:51.348Z,32.56
2018-04-07T12:26:18.816Z,32.07
2018-04-07T12:28:46.291Z,32.25
2018-04-07T12:31:13.750Z,32.12
2018-04-07T12:33:41.207Z,32.30
2018-04-07T12:36:08.678Z,32.33
2018-04-07T12:38:36.138Z,31.59
2018-04-07T12:41:03.617Z,31.30
2018-04-07T12:43:31.159Z,31.19
2018-04-07T12:45:58.627Z,31.15
2018-04-07T12:48:26.111Z,31.10
2018-04-07T12:50:53.585Z,30.43
2018-04-07T12:53:21.072Z,30.01
2018-04-07T12:55:48.559Z,29.88
2018-04-07T12:58:16.038Z,29.93
2018-04-07T13:00:43.524Z,30.04
2018-04-07T13:03:11.004Z,29.23
2018-04-07T13:05:38.463Z,28.48
2018-04-07T13:08:05.916Z,28.53
2018-04-07T13:10:33.382Z,28.44
2018-04-07T13:13:00.875Z,28.48
2018-04-07T13:15:28.345Z,28.46
2018-04-07T13:17:55.808Z,28.14
2018-04-07T13:20:23.253Z,27.83
2018-04-07T13:22:50.737Z,27.27
2018-04-07T13:25:18.235Z,27.03
2018-04-07T13:27:45.716Z,26.46
2018-04-07T13:30:13.182Z,26.25
2018-04-07T13:32:40.673Z,25.79
2018-04-07T13:35:08.134Z,26.60
2018-04-07T13:37:35.592Z,26.62
2018-04-07T13:40:03.062Z,26.82
2018-04-07T13:42:30.513Z,27.10
2018-04-07T13:44:57.989Z,26.65
2018-04-07T13:47:25.456Z,26.87
2018-04-07T13:49:52.935Z,27.73
2018-04-07T13:52:20.413Z,28.77
2018-04-07T13:54:47.966Z,29.47
2018-04-07T13:57:15.407Z,29.55
2018-04-07T13:59:42.912Z,30.19
2018-04-07T14:02:10.377Z,30.32
2018-04-07T14:04:37.831Z,29.79
2018-04-07T14:07:05.347Z,29.03
2018-04-07T14:09:32.840Z,28.23
2018-04-07T14:12:00.298Z,27.49
2018-04-07T14:14:27.782Z,27.20
2018-04-07T14:16:55.303Z,27.82
2018-04-07T14:19:22.821Z,28.43
2018-04-07T14:21:50.294Z,29.50
2018-04-07T14:24:17.844Z,29.71
2018-04-07T14:26:45.294Z,30.51
2018-04-07T14:29:12.764Z,30.60
2018-04-07T14:31:40.221Z,31.58
2018-04-07T14:34:07.695Z,32.15
2018-04-07T14:36:35.160Z,33.19
2018-04-07T14:39:02.628Z,33.68
2018-04-07T14:41:30.127Z,33.89
2018-04-07T14:43:57.584Z,34.83
2018-04-07T14:46:25.071Z,35.25
2018-04-07T14:48:52.528Z,35.95
2018-04-07T14:51:20.064Z,36.46
2018-04-07T14:53:47.540Z,36.85
2018-04-07T14:56:15.012Z,36.90
2018-04-07T14:58:42.550Z,37.03
2018-04-07T15:01:10.005Z,36.90
2018-04-07T15:03:37.472Z,37.63
2018-04-07T15:06:04.943Z,37.89
2018-04-07T15:08:32.460Z,38.17
2018-04-07T15:10:59.944Z,38.53
2018-04-07T15:13:27.462Z,38.41
2018-04-07T15:15:54.942Z,39.43
2018-04-07T15:18:22.419Z,39.40
2018-04-07T15:20:49.877Z,39.40
2018-04-07T15:23:17.353Z,39.98
2018-04-07T15:25:44.832Z,39.64
2018-04-07T15:28:12.529Z,39.78
2018-04-07T15:30:39.998Z,40.50
2018-04-07T15:33:07.469Z,40.79
2018-04-07T15:35:34.990Z,40.79
2018-04-07T15:38:02.997Z,40.75
2018-04-07T15:40:30.471Z,41.12
2018-04-07T15:42:57.934Z,41.25
2018-04-07T15:45:25.437Z,41.45
2018-04-07T15:47:52.935Z,41.83
2018-04-07T15:50:20.420Z,42.02
2018-04-07T15:52:47.895Z,42.13
2018-04-07T15:55:15.393Z,43.05
2018-04-07T15:57:42.913Z,43.71
2018-04-07T16:00:10.463Z,43.89
2018-04-07T16:02:37.953Z,44.13
2018-04-07T16:05:05.491Z,44.39
2018-04-07T16:07:33.289Z,44.27
2018-04-07T16:10:00.783Z,44.82
2018-04-07T16:12:29.364Z,45.22
2018-04-07T16:14:56.834Z,45.85
2018-04-07T16:17:24.334Z,45.92
2018-04-07T16:19:51.833Z,46.20
2018-04-07T16:22:19.329Z,46.32
2018-04-07T16:24:47.421Z,46.72
2018-04-07T16:27:14.916Z,48.40
2018-04-07T16:29:42.416Z,49.67
2018-04-07T16:32:09.956Z,50.53
2018-04-07T16:34:37.440Z,51.15
2018-04-07T16:37:04.953Z,51.45
2018-04-07T16:39:32.448Z,51.83
2018-04-07T16:42:00.039Z,52.46
2018-04-07T16:44:27.521Z,52.96
2018-04-07T16:46:55.021Z,53.62
2018-04-07T16:49:22.535Z,54.02
2018-04-07T16:51:50.112Z,54.23
2018-04-07T16:54:17.578Z,54.68
2018-04-07T16:56:45.087Z,54.94
2018-04-07T16:59:12.564Z,55.31
2018-04-07T17:01:40.140Z,55.63
2018-04-07T17:04:07.631Z,55.60
2018-04-07T17:06:35.145Z,55.95
2018-04-07T17:09:02.655Z,56.17
2018-04-07T17:11:30.147Z,56.20
2018-04-07T17:13:57.984Z,56.39
2018-04-07T17:16:25.471Z,56.69
2018-04-07T17:18:52.968Z,56.85
2018-04-07T17:21:20.531Z,57.19
2018-04-07T17:23:48.064Z,57.55
2018-04-07T17:26:15.543Z,58.02
2018-04-07T17:28:43.017Z,58.26
2018-04-07T17:31:10.496Z,58.68
2018-04-07T17:33:37.980Z,59.40
2018-04-07T17:36:05.528Z,59.61
2018-04-07T17:38:33.239Z,60.08
2018-04-07T17:41:01.996Z,60.30
2018-04-07T17:43:29.593Z,60.02
2018-04-07T17:45:57.087Z,59.73
2018-04-07T17:48:24.614Z,59.89
2018-04-07T17:50:52.080Z,60.29
2018-04-07T17:53:19.578Z,60.65
2018-04-07T17:55:47.073Z,61.23
2018-04-07T17:58:14.575Z,61.35
2018-04-07T18:00:42.075Z,61.48
2018-04-07T18:03:09.561Z,61.31
2018-04-07T18:05:37.139Z,61.12
2018-04-07T18:08:04.593Z,61.13
2018-04-07T18:10:32.099Z,61.35
2018-04-07T18:12:59.627Z,61.45
2018-04-07T18:15:27.157Z,61.69
2018-04-07T18:17:54.639Z,61.95
2018-04-07T18:20:22.112Z,62.28
2018-04-07T18:22:50.271Z,62.41
2018-04-07T18:25:17.843Z,62.61
2018-04-07T18:27:45.330Z,63.04
2018-04-07T18:30:12.821Z,63.47
2018-04-07T18:32:40.320Z,63.84
2018-04-07T18:35:07.803Z,64.29
2018-04-07T18:37:35.275Z,64.65
2018-04-07T18:40:02.786Z,65.27
2018-04-07T18:42:30.276Z,65.42
2018-04-07T18:44:57.739Z,65.99
2018-04-07T18:47:25.249Z,66.40
2018-04-07T18:49:52.779Z,66.68
2018-04-07T18:52:20.248Z,67.49
2018-04-07T18:54:47.740Z,67.30
2018-04-07T18:57:15.222Z,67.91
2018-04-07T18:59:42.730Z,68.62
2018-04-07T19:02:10.227Z,68.84
2018-04-07T19:04:37.685Z,69.00
2018-04-07T19:07:05.177Z,68.76
2018-04-07T19:09:32.715Z,68.82
2018-04-07T19:12:00.193Z,69.25
2018-04-07T19:14:27.709Z,69.98
2018-04-07T19:16:55.194Z,70.66
2018-04-07T19:19:22.667Z,70.84
2018-04-07T19:21:50.174Z,71.27
2018-04-07T19:24:17.993Z,71.54
2018-04-07T19:26:45.993Z,71.96
2018-04-07T19:29:14.923Z,72.32
2018-04-07T19:31:42.397Z,72.54
2018-04-07T19:34:09.871Z,72.68
2018-04-07T19:36:37.379Z,73.17
2018-04-07T19:39:04.925Z,73.87
2018-04-07T19:41:32.428Z,74.17
2018-04-07T19:43:59.961Z,74.26
2018-04-07T19:46:27.434Z,74.57
2018-04-07T19:48:54.928Z,75.20
2018-04-07T19:51:22.461Z,75.37
2018-04-07T19:53:49.921Z,75.67
2018-04-07T19:56:17.443Z,75.86
2018-04-07T19:58:44.940Z,75.98
2018-04-07T20:01:12.408Z,76.38
2018-04-07T20:03:39.923Z,76.63
2018-04-07T20:06:07.393Z,76.71
2018-04-07T20:08:34.893Z,76.91
2018-04-07T20:11:02.359Z,76.70
2018-04-07T20:13:30.147Z,76.86
2018-04-07T20:15:57.647Z,77.24
2018-04-07T20:18:25.111Z,75.03
2018-04-07T20:20:52.571Z,72.89
2018-04-07T20:23:20.029Z,71.80
2018-04-07T20:25:47.483Z,71.94
2018-04-07T20:28:15.013Z,71.73
2018-04-07T20:30:42.479Z,72.33
2018-04-07T20:33:09.961Z,72.96
2018-04-07T20:35:37.449Z,73.79
2018-04-07T20:38:04.909Z,73.29
2018-04-07T20:40:32.358Z,73.37
2018-04-07T20:42:59.855Z,74.42
2018-04-07T20:45:27.348Z,75.00
2018-04-07T20:47:54.841Z,75.98
2018-04-07T20:50:22.325Z,76.28
2018-04-07T20:52:49.824Z,76.63
2018-04-07T20:55:17.318Z,76.86
2018-04-07T20:57:44.803Z,76.86
2018-04-07T21:00:12.263Z,77.32
2018-04-07T21:02:39.755Z,77.78
2018-04-07T21:05:07.235Z,78.59
2018-04-07T21:07:34.800Z,79.15
2018-04-07T21:10:02.272Z,78.89
2018-04-07T21:12:29.758Z,79.18
2018-04-07T21:14:57.254Z,79.32
2018-04-07T21:17:24.738Z,78.94
2018-04-07T21:19:52.455Z,79.06
2018-04-07T21:22:19.928Z,79.25
2018-04-07T21:24:47.419Z,79.52
2018-04-07T21:27:14.884Z,79.43
2018-04-07T21:29:42.332Z,79.01
2018-04-07T21:32:09.797Z,78.84
2018-04-07T21:34:37.292Z,78.98
2018-04-07T21:37:04.886Z,79.41
2018-04-07T21:39:32.369Z,79.65
2018-04-07T21:41:59.824Z,79.44
2018-04-07T21:44:27.336Z,79.72
2018-04-07T21:46:54.795Z,79.56
2018-04-07T21:49:22.307Z,79.83
2018-04-07T21:51:49.779Z,80.24
2018-04-07T21:54:17.262Z,80.00
2018-04-07T21:56:44.765Z,79.96
2018-04-07T21:59:12.259Z,80.10
2018-04-07T22:01:39.773Z,79.75
2018-04-07T22:04:07.283Z,79.05
2018-04-07T22:06:34.739Z,78.92
2018-04-07T22:09:03.240Z,78.81
2018-04-07T22:11:30.711Z,78.99
2018-04-07T22:13:58.160Z,79.04
2018-04-07T22:16:25.649Z,78.77
2018-04-07T22:18:53.125Z,79.12
2018-04-07T22:21:20.584Z,79.05
2018-04-07T22:23:48.061Z,79.12
2018-04-07T22:26:15.540Z,79.29
2018-04-07T22:28:43.079Z,79.19
2018-04-07T22:31:10.549Z,79.50
2018-04-07T22:33:38.036Z,80.17
2018-04-07T22:36:05.581Z,80.29
2018-04-07T22:38:33.024Z,80.66
2018-04-07T22:41:00.494Z,80.86
2018-04-07T22:43:27.967Z,81.31
2018-04-07T22:45:55.459Z,81.45
2018-04-07T22:48:22.915Z,81.10
2018-04-07T22:50:50.389Z,80.83
2018-04-07T22:53:17.864Z,81.24
2018-04-07T22:55:45.350Z,81.55
2018-04-07T22:58:12.833Z,81.33
2018-04-07T23:00:40.290Z,81.01
2018-04-07T23:03:07.787Z,80.68
2018-04-07T23:05:35.272Z,80.73
2018-04-07T23:08:02.758Z,80.84
2018-04-07T23:10:30.219Z,80.50
2018-04-07T23:12:57.681Z,80.68
2018-04-07T23:15:25.159Z,80.83
2018-04-07T23:17:52.633Z,81.13
2018-04-07T23:20:20.187Z,81.69
2018-04-07T23:22:47.670Z,82.09
2018-04-07T23:25:15.164Z,82.27
2018-04-07T23:27:42.634Z,82.68
2018-04-07T23:30:10.120Z,82.81
2018-04-07T23:32:37.623Z,83.07
2018-04-07T23:35:05.103Z,83.50
2018-04-07T23:37:32.581Z,83.85
2018-04-07T23:40:00.041Z,84.01
2018-04-07T23:42:27.583Z,84.02
2018-04-07T23:44:55.046Z,83.74
2018-04-07T23:47:22.574Z,83.50
2018-04-07T23:49:50.048Z,83.03
2018-04-07T23:52:17.526Z,82.44
2018-04-07T23:54:44.995Z,82.17
2018-04-07T23:57:12.452Z,81.70
2018-04-07T23:59:39.915Z,81.77
